Back to top

Greybull, WY weather

South Big Horn County Airport, Greybull, WY: 12/13/2019 00:53
Visibility10 statute mileslots of clouds
View 7-Day Forecast
Area Summary
Sky/CloudsFew at 7000ft, Solid Overcast at 9000ft
Weather [last 24 hours]None
Pressure29.83 in.Hg (1010 hPa)
Dew Point27 °F (-2.8 °C)
Relative Humidity 85 %
Temperature30.9 °F (-0.6 °C)red thermometer
Reading TimeMinimum to Maximum Temperature
6-hr ending 12/12@22:5327 °F to 36 °F (-2.8 °C to 2.2 °C)
6-hr ending 12/12@16:5330 °F to 39 °F (-1.1 °C to 3.9 °C)
6-hr ending 12/12@10:5317.1 °F to 30.9 °F (-8.3 °C to -0.6 °C)
6-hr ending 12/12@04:5314 °F to 23 °F (-10 °C to -5 °C)
24-hr ending 12/12@23:5317.1 °F to 39 °F (-8.3 °C to 3.9 °C)
Wind0 MPH (0 KT) green arrow pointing at 0 degrees
Wind FromNorth (000 Degrees)
Twilight Begins07:06Sunshine Yesterday
Sunrise07:39N/A
Sunset16:34
Twilight Ends17:08
METARKGEY 130753Z AUTO 00000KT 10SM FEW070 OVC090 M01/M03 A2983 RMK AO2 SLP127 T10061028
Tags: